sensor_id;sensor_type;location;lat;lon;timestamp;P1;durP1;ratioP1;P2;durP2;ratioP2
2652;SDS011;1336;48.692;9.144;2022-07-05T05:00:30;3.77;;;3.17;;
2652;SDS011;1336;48.692;9.144;2022-07-05T05:01:22;3.58;;;3.05;;
2652;SDS011;1336;48.692;9.144;2022-07-05T05:02:12;3.10;;;2.90;;
2652;SDS011;1336;48.692;9.144;2022-07-05T05:03:05;5.03;;;3.00;;
2652;SDS011;1336;48.692;9.144;2022-07-05T05:03:55;3.57;;;2.80;;
2652;SDS011;1336;48.692;9.144;2022-07-05T05:04:47;4.57;;;3.05;;
2652;SDS011;1336;48.692;9.144;2022-07-05T05:05:38;3.90;;;3.23;;
2652;SDS011;1336;48.692;9.144;2022-07-05T05:06:30;3.30;;;2.72;;
2652;SDS011;1336;48.692;9.144;2022-07-05T05:07:20;7.97;;;3.07;;
2652;SDS011;1336;48.692;9.144;2022-07-05T05:08:12;4.28;;;3.08;;
2652;SDS011;1336;48.692;9.144;2022-07-05T05:09:03;8.23;;;3.10;;
2652;SDS011;1336;48.692;9.144;2022-07-05T05:09:55;4.70;;;2.95;;
2652;SDS011;1336;48.692;9.144;2022-07-05T05:10:46;3.27;;;2.70;;
2652;SDS011;1336;48.692;9.144;2022-07-05T05:11:37;7.35;;;3.30;;
2652;SDS011;1336;48.692;9.144;2022-07-05T05:12:28;3.07;;;2.77;;
2652;SDS011;1336;48.692;9.144;2022-07-05T05:13:20;2.53;;;2.33;;
2652;SDS011;1336;48.692;9.144;2022-07-05T05:14:11;3.63;;;3.03;;
2652;SDS011;1336;48.692;9.144;2022-07-05T05:15:03;3.35;;;3.05;;
2652;SDS011;1336;48.692;9.144;2022-07-05T05:15:59;3.20;;;2.92;;
2652;SDS011;1336;48.692;9.144;2022-07-05T05:16:52;4.03;;;3.00;;
2652;SDS011;1336;48.692;9.144;2022-07-05T05:17:44;3.10;;;2.80;;
2652;SDS011;1336;48.692;9.144;2022-07-05T05:18:36;4.60;;;3.08;;
2652;SDS011;1336;48.692;9.144;2022-07-05T05:19:26;3.13;;;2.57;;
2652;SDS011;1336;48.692;9.144;2022-07-05T05:20:19;3.00;;;2.70;;
2652;SDS011;1336;48.692;9.144;2022-07-05T05:21:10;2.45;;;2.25;;
2652;SDS011;1336;48.692;9.144;2022-07-05T05:22:02;3.42;;;3.13;;
2652;SDS011;1336;48.692;9.144;2022-07-05T05:22:53;3.05;;;2.60;;
2652;SDS011;1336;48.692;9.144;2022-07-05T05:23:45;5.10;;;2.97;;
2652;SDS011;1336;48.692;9.144;2022-07-05T05:24:35;3.17;;;2.87;;
2652;SDS011;1336;48.692;9.144;2022-07-05T05:25:27;5.40;;;2.88;;
2652;SDS011;1336;48.692;9.144;2022-07-05T05:26:20;3.55;;;2.60;;
2652;SDS011;1336;48.692;9.144;2022-07-05T05:27:12;2.70;;;2.50;;
2652;SDS011;1336;48.692;9.144;2022-07-05T05:28:03;3.50;;;2.63;;
2652;SDS011;1336;48.692;9.144;2022-07-05T05:28:55;2.85;;;2.55;;
2652;SDS011;1336;48.692;9.144;2022-07-05T05:29:46;2.80;;;2.30;;
2652;SDS011;1336;48.692;9.144;2022-07-05T05:30:38;2.95;;;2.75;;
2652;SDS011;1336;48.692;9.144;2022-07-05T05:31:30;3.90;;;2.63;;
2652;SDS011;1336;48.692;9.144;2022-07-05T05:32:22;3.03;;;2.72;;
2652;SDS011;1336;48.692;9.144;2022-07-05T05:33:12;2.53;;;2.33;;
2652;SDS011;1336;48.692;9.144;2022-07-05T05:34:04;3.45;;;2.60;;
2652;SDS011;1336;48.692;9.144;2022-07-05T05:34:55;3.00;;;2.70;;
2652;SDS011;1336;48.692;9.144;2022-07-05T05:35:47;2.78;;;2.58;;
2652;SDS011;1336;48.692;9.144;2022-07-05T05:36:37;4.00;;;2.50;;
2652;SDS011;1336;48.692;9.144;2022-07-05T05:37:29;4.22;;;2.65;;
2652;SDS011;1336;48.692;9.144;2022-07-05T05:38:20;3.27;;;2.40;;
2652;SDS011;1336;48.692;9.144;2022-07-05T05:39:12;3.60;;;2.60;;
2652;SDS011;1336;48.692;9.144;2022-07-05T05:40:03;3.97;;;2.50;;
2652;SDS011;1336;48.692;9.144;2022-07-05T05:40:56;3.00;;;2.55;;
2652;SDS011;1336;48.692;9.144;2022-07-05T05:41:46;2.63;;;2.43;;
2652;SDS011;1336;48.692;9.144;2022-07-05T05:42:38;2.42;;;2.22;;
2652;SDS011;1336;48.692;9.144;2022-07-05T05:43:29;3.60;;;2.40;;
2652;SDS011;1336;48.692;9.144;2022-07-05T05:44:21;2.72;;;2.50;;
2652;SDS011;1336;48.692;9.144;2022-07-05T05:45:11;4.43;;;2.40;;
2652;SDS011;1336;48.692;9.144;2022-07-05T05:46:03;2.78;;;2.28;;
2652;SDS011;1336;48.692;9.144;2022-07-05T05:46:55;2.30;;;2.10;;
2652;SDS011;1336;48.692;9.144;2022-07-05T05:47:48;2.38;;;2.00;;
2652;SDS011;1336;48.692;9.144;2022-07-05T05:48:40;2.90;;;2.42;;
2652;SDS011;1336;48.692;9.144;2022-07-05T05:49:32;2.60;;;1.90;;
2652;SDS011;1336;48.692;9.144;2022-07-05T05:50:23;2.60;;;2.10;;
2652;SDS011;1336;48.692;9.144;2022-07-05T05:51:16;3.78;;;2.25;;
2652;SDS011;1336;48.692;9.144;2022-07-05T05:52:06;3.00;;;2.03;;
2652;SDS011;1336;48.692;9.144;2022-07-05T05:52:58;5.97;;;2.50;;
2652;SDS011;1336;48.692;9.144;2022-07-05T05:53:50;2.08;;;1.88;;
2652;SDS011;1336;48.692;9.144;2022-07-05T05:54:42;5.28;;;2.30;;
2652;SDS011;1336;48.692;9.144;2022-07-05T05:55:32;2.00;;;1.67;;
2652;SDS011;1336;48.692;9.144;2022-07-05T05:56:25;2.13;;;1.70;;
2652;SDS011;1336;48.692;9.144;2022-07-05T05:57:16;2.22;;;1.73;;
2652;SDS011;1336;48.692;9.144;2022-07-05T05:58:12;4.13;;;2.00;;
2652;SDS011;1336;48.692;9.144;2022-07-05T05:59:03;2.50;;;1.98;;
2652;SDS011;1336;48.692;9.144;2022-07-05T05:59:55;2.08;;;1.80;;
2652;SDS011;1336;48.692;9.144;2022-07-05T06:00:46;1.87;;;1.50;;
2652;SDS011;1336;48.692;9.144;2022-07-05T06:01:39;2.92;;;2.00;;
2652;SDS011;1336;48.692;9.144;2022-07-05T06:02:32;2.53;;;1.60;;
2652;SDS011;1336;48.692;9.144;2022-07-05T06:03:25;1.77;;;1.67;;
2652;SDS011;1336;48.692;9.144;2022-07-05T06:04:16;3.05;;;1.92;;
2652;SDS011;1336;48.692;9.144;2022-07-05T06:05:08;2.58;;;1.63;;
2652;SDS011;1336;48.692;9.144;2022-07-05T06:05:59;2.88;;;1.92;;
2652;SDS011;1336;48.692;9.144;2022-07-05T06:06:51;2.45;;;1.70;;
2652;SDS011;1336;48.692;9.144;2022-07-05T06:07:49;1.73;;;1.63;;
2652;SDS011;1336;48.692;9.144;2022-07-05T06:08:42;1.77;;;1.60;;
2652;SDS011;1336;48.692;9.144;2022-07-05T06:09:33;3.73;;;1.67;;
2652;SDS011;1336;48.692;9.144;2022-07-05T06:10:25;1.48;;;1.25;;
2652;SDS011;1336;48.692;9.144;2022-07-05T06:11:17;1.90;;;1.65;;
2652;SDS011;1336;48.692;9.144;2022-07-05T06:12:09;1.73;;;1.45;;
2652;SDS011;1336;48.692;9.144;2022-07-05T06:13:01;1.43;;;1.20;;
2652;SDS011;1336;48.692;9.144;2022-07-05T06:13:54;4.50;;;1.77;;
2652;SDS011;1336;48.692;9.144;2022-07-05T06:14:45;3.10;;;1.60;;
2652;SDS011;1336;48.692;9.144;2022-07-05T06:15:37;1.48;;;1.25;;
2652;SDS011;1336;48.692;9.144;2022-07-05T06:16:28;1.42;;;1.15;;
2652;SDS011;1336;48.692;9.144;2022-07-05T06:17:20;1.80;;;1.45;;
2652;SDS011;1336;48.692;9.144;2022-07-05T06:18:12;2.17;;;1.30;;
2652;SDS011;1336;48.692;9.144;2022-07-05T06:19:04;1.90;;;1.52;;
2652;SDS011;1336;48.692;9.144;2022-07-05T06:19:55;1.83;;;1.30;;
2652;SDS011;1336;48.692;9.144;2022-07-05T06:20:46;3.40;;;1.60;;
2652;SDS011;1336;48.692;9.144;2022-07-05T06:21:37;1.75;;;1.42;;
2652;SDS011;1336;48.692;9.144;2022-07-05T06:22:29;1.80;;;1.70;;
2652;SDS011;1336;48.692;9.144;2022-07-05T06:23:20;5.17;;;1.87;;
2652;SDS011;1336;48.692;9.144;2022-07-05T06:24:12;1.88;;;1.40;;
2652;SDS011;1336;48.692;9.144;2022-07-05T06:25:03;1.70;;;1.50;;
2652;SDS011;1336;48.692;9.144;2022-07-05T06:25:55;3.00;;;1.80;;
2652;SDS011;1336;48.692;9.144;2022-07-05T06:26:47;1.33;;;1.20;;
2652;SDS011;1336;48.692;9.144;2022-07-05T06:27:38;1.40;;;1.30;;
2652;SDS011;1336;48.692;9.144;2022-07-05T06:28:30;1.23;;;1.13;;
2652;SDS011;1336;48.692;9.144;2022-07-05T06:29:22;2.58;;;1.52;;
2652;SDS011;1336;48.692;9.144;2022-07-05T06:30:14;1.83;;;1.30;;
2652;SDS011;1336;48.692;9.144;2022-07-05T06:31:07;1.92;;;1.30;;
2652;SDS011;1336;48.692;9.144;2022-07-05T06:31:58;1.37;;;1.27;;
2652;SDS011;1336;48.692;9.144;2022-07-05T06:32:51;2.72;;;1.25;;
2652;SDS011;1336;48.692;9.144;2022-07-05T06:33:44;2.90;;;1.50;;
2652;SDS011;1336;48.692;9.144;2022-07-05T06:34:35;1.40;;;1.30;;
2652;SDS011;1336;48.692;9.144;2022-07-05T06:35:26;1.47;;;1.37;;
2652;SDS011;1336;48.692;9.144;2022-07-05T06:36:18;2.63;;;1.80;;
2652;SDS011;1336;48.692;9.144;2022-07-05T06:37:10;3.05;;;1.60;;
2652;SDS011;1336;48.692;9.144;2022-07-05T06:38:02;2.15;;;1.60;;
2652;SDS011;1336;48.692;9.144;2022-07-05T06:38:54;2.10;;;1.50;;
2652;SDS011;1336;48.692;9.144;2022-07-05T06:39:45;2.25;;;1.63;;
2652;SDS011;1336;48.692;9.144;2022-07-05T06:40:37;1.90;;;1.40;;
2652;SDS011;1336;48.692;9.144;2022-07-05T06:41:32;2.20;;;1.33;;
2652;SDS011;1336;48.692;9.144;2022-07-05T06:42:23;2.60;;;1.50;;
2652;SDS011;1336;48.692;9.144;2022-07-05T06:43:14;2.00;;;1.38;;
2652;SDS011;1336;48.692;9.144;2022-07-05T06:44:05;1.47;;;1.30;;
2652;SDS011;1336;48.692;9.144;2022-07-05T06:44:57;4.95;;;1.85;;
2652;SDS011;1336;48.692;9.144;2022-07-05T06:45:47;1.70;;;1.30;;
2652;SDS011;1336;48.692;9.144;2022-07-05T06:46:39;4.32;;;2.13;;
2652;SDS011;1336;48.692;9.144;2022-07-05T06:47:30;2.10;;;1.43;;
2652;SDS011;1336;48.692;9.144;2022-07-05T06:48:22;3.17;;;1.55;;
2652;SDS011;1336;48.692;9.144;2022-07-05T06:49:14;2.33;;;1.63;;
2652;SDS011;1336;48.692;9.144;2022-07-05T06:50:06;2.20;;;1.65;;
2652;SDS011;1336;48.692;9.144;2022-07-05T06:50:58;2.10;;;1.50;;
2652;SDS011;1336;48.692;9.144;2022-07-05T06:51:49;2.35;;;1.30;;
2652;SDS011;1336;48.692;9.144;2022-07-05T06:52:40;2.70;;;1.60;;
2652;SDS011;1336;48.692;9.144;2022-07-05T06:53:32;1.50;;;1.23;;
2652;SDS011;1336;48.692;9.144;2022-07-05T06:54:23;2.60;;;1.53;;
2652;SDS011;1336;48.692;9.144;2022-07-05T06:55:14;2.00;;;1.20;;
2652;SDS011;1336;48.692;9.144;2022-07-05T06:56:05;2.93;;;1.27;;
2652;SDS011;1336;48.692;9.144;2022-07-05T06:56:57;2.67;;;2.10;;
2652;SDS011;1336;48.692;9.144;2022-07-05T06:57:47;4.17;;;1.50;;
2652;SDS011;1336;48.692;9.144;2022-07-05T06:58:39;2.72;;;1.42;;
2652;SDS011;1336;48.692;9.144;2022-07-05T06:59:30;3.08;;;1.73;;
2652;SDS011;1336;48.692;9.144;2022-07-05T07:00:22;2.55;;;1.40;;
2652;SDS011;1336;48.692;9.144;2022-07-05T07:01:13;1.50;;;1.40;;
2652;SDS011;1336;48.692;9.144;2022-07-05T07:02:05;1.20;;;1.10;;
2652;SDS011;1336;48.692;9.144;2022-07-05T07:02:56;1.70;;;1.40;;
2652;SDS011;1336;48.692;9.144;2022-07-05T07:03:47;2.50;;;1.33;;
2652;SDS011;1336;48.692;9.144;2022-07-05T07:04:40;2.00;;;1.70;;
2652;SDS011;1336;48.692;9.144;2022-07-05T07:05:31;1.77;;;1.40;;
2652;SDS011;1336;48.692;9.144;2022-07-05T07:06:22;1.30;;;1.20;;
2652;SDS011;1336;48.692;9.144;2022-07-05T07:07:14;3.10;;;1.23;;
2652;SDS011;1336;48.692;9.144;2022-07-05T07:08:23;2.13;;;1.20;;
2652;SDS011;1336;48.692;9.144;2022-07-05T07:09:32;2.72;;;1.50;;
2652;SDS011;1336;48.692;9.144;2022-07-05T07:10:23;1.60;;;1.50;;
2652;SDS011;1336;48.692;9.144;2022-07-05T07:11:15;3.00;;;1.70;;
2652;SDS011;1336;48.692;9.144;2022-07-05T07:12:07;2.30;;;1.15;;
2652;SDS011;1336;48.692;9.144;2022-07-05T07:12:59;2.97;;;1.35;;
2652;SDS011;1336;48.692;9.144;2022-07-05T07:13:51;3.47;;;1.85;;
2652;SDS011;1336;48.692;9.144;2022-07-05T07:14:42;3.58;;;1.55;;
2652;SDS011;1336;48.692;9.144;2022-07-05T07:15:33;4.67;;;1.47;;
2652;SDS011;1336;48.692;9.144;2022-07-05T07:16:25;3.40;;;1.40;;
2652;SDS011;1336;48.692;9.144;2022-07-05T07:17:16;2.30;;;1.60;;
2652;SDS011;1336;48.692;9.144;2022-07-05T07:18:08;2.70;;;1.55;;
2652;SDS011;1336;48.692;9.144;2022-07-05T07:18:59;2.53;;;1.70;;
2652;SDS011;1336;48.692;9.144;2022-07-05T07:19:52;2.13;;;1.50;;
2652;SDS011;1336;48.692;9.144;2022-07-05T07:20:43;2.10;;;1.30;;
2652;SDS011;1336;48.692;9.144;2022-07-05T07:21:34;2.45;;;1.48;;
2652;SDS011;1336;48.692;9.144;2022-07-05T07:22:25;2.15;;;1.50;;
2652;SDS011;1336;48.692;9.144;2022-07-05T07:23:17;4.88;;;1.90;;
2652;SDS011;1336;48.692;9.144;2022-07-05T07:24:09;3.45;;;1.83;;
2652;SDS011;1336;48.692;9.144;2022-07-05T07:25:02;2.13;;;1.70;;
2652;SDS011;1336;48.692;9.144;2022-07-05T07:25:55;1.60;;;1.50;;
2652;SDS011;1336;48.692;9.144;2022-07-05T07:26:46;1.95;;;1.70;;
2652;SDS011;1336;48.692;9.144;2022-07-05T07:27:56;3.05;;;1.95;;
2652;SDS011;1336;48.692;9.144;2022-07-05T07:28:48;2.20;;;2.00;;
2652;SDS011;1336;48.692;9.144;2022-07-05T07:29:39;2.33;;;1.80;;
2652;SDS011;1336;48.692;9.144;2022-07-05T07:30:31;2.75;;;1.60;;
2652;SDS011;1336;48.692;9.144;2022-07-05T07:31:22;3.93;;;1.60;;
2652;SDS011;1336;48.692;9.144;2022-07-05T07:32:15;4.30;;;2.05;;
2652;SDS011;1336;48.692;9.144;2022-07-05T07:33:06;4.40;;;1.70;;
2652;SDS011;1336;48.692;9.144;2022-07-05T07:33:58;4.03;;;1.63;;
2652;SDS011;1336;48.692;9.144;2022-07-05T07:34:48;1.80;;;1.70;;
2652;SDS011;1336;48.692;9.144;2022-07-05T07:35:42;2.75;;;1.40;;
2652;SDS011;1336;48.692;9.144;2022-07-05T07:36:34;1.50;;;1.40;;
2652;SDS011;1336;48.692;9.144;2022-07-05T07:37:26;4.07;;;1.60;;
2652;SDS011;1336;48.692;9.144;2022-07-05T07:38:16;1.67;;;1.50;;
2652;SDS011;1336;48.692;9.144;2022-07-05T07:39:08;1.48;;;1.23;;
2652;SDS011;1336;48.692;9.144;2022-07-05T07:39:59;3.10;;;1.30;;
2652;SDS011;1336;48.692;9.144;2022-07-05T07:40:52;3.53;;;1.35;;
2652;SDS011;1336;48.692;9.144;2022-07-05T07:41:43;1.93;;;1.60;;
2652;SDS011;1336;48.692;9.144;2022-07-05T07:42:35;3.38;;;1.63;;
2652;SDS011;1336;48.692;9.144;2022-07-05T07:43:26;1.88;;;1.20;;
2652;SDS011;1336;48.692;9.144;2022-07-05T07:44:18;2.78;;;1.50;;
2652;SDS011;1336;48.692;9.144;2022-07-05T07:45:09;1.17;;;1.08;;
2652;SDS011;1336;48.692;9.144;2022-07-05T07:46:01;2.60;;;1.60;;
2652;SDS011;1336;48.692;9.144;2022-07-05T07:46:52;5.37;;;1.40;;
2652;SDS011;1336;48.692;9.144;2022-07-05T07:47:44;3.65;;;1.63;;
2652;SDS011;1336;48.692;9.144;2022-07-05T07:48:35;1.50;;;1.37;;
2652;SDS011;1336;48.692;9.144;2022-07-05T07:49:27;1.88;;;1.45;;
2652;SDS011;1336;48.692;9.144;2022-07-05T07:50:18;1.77;;;1.53;;
2652;SDS011;1336;48.692;9.144;2022-07-05T07:51:11;2.05;;;1.52;;
2652;SDS011;1336;48.692;9.144;2022-07-05T07:52:01;3.78;;;1.50;;
2652;SDS011;1336;48.692;9.144;2022-07-05T07:52:54;5.75;;;1.50;;
2652;SDS011;1336;48.692;9.144;2022-07-05T07:53:45;3.27;;;1.60;;
2652;SDS011;1336;48.692;9.144;2022-07-05T07:54:36;2.00;;;1.48;;
2652;SDS011;1336;48.692;9.144;2022-07-05T07:55:28;2.90;;;1.70;;
2652;SDS011;1336;48.692;9.144;2022-07-05T07:56:19;5.30;;;1.80;;
2652;SDS011;1336;48.692;9.144;2022-07-05T07:57:11;2.85;;;1.50;;
2652;SDS011;1336;48.692;9.144;2022-07-05T07:58:01;2.80;;;1.30;;
2652;SDS011;1336;48.692;9.144;2022-07-05T07:58:54;2.13;;;1.65;;
2652;SDS011;1336;48.692;9.144;2022-07-05T07:59:44;1.60;;;1.50;;
2652;SDS011;1336;48.692;9.144;2022-07-05T08:00:36;2.47;;;1.40;;
2652;SDS011;1336;48.692;9.144;2022-07-05T08:01:27;3.37;;;1.40;;
2652;SDS011;1336;48.692;9.144;2022-07-05T08:02:19;2.40;;;1.40;;
2652;SDS011;1336;48.692;9.144;2022-07-05T08:03:12;2.47;;;1.70;;
2652;SDS011;1336;48.692;9.144;2022-07-05T08:04:03;2.33;;;1.57;;
2652;SDS011;1336;48.692;9.144;2022-07-05T08:04:55;1.70;;;1.35;;
2652;SDS011;1336;48.692;9.144;2022-07-05T08:05:48;3.90;;;1.58;;
2652;SDS011;1336;48.692;9.144;2022-07-05T08:06:40;2.40;;;1.50;;
2652;SDS011;1336;48.692;9.144;2022-07-05T08:07:32;1.58;;;1.13;;
2652;SDS011;1336;48.692;9.144;2022-07-05T08:08:22;4.83;;;1.80;;
2652;SDS011;1336;48.692;9.144;2022-07-05T08:09:14;1.83;;;1.50;;
2652;SDS011;1336;48.692;9.144;2022-07-05T08:10:05;1.90;;;1.30;;
2652;SDS011;1336;48.692;9.144;2022-07-05T08:10:58;3.53;;;1.67;;
2652;SDS011;1336;48.692;9.144;2022-07-05T08:11:49;1.40;;;1.30;;
2652;SDS011;1336;48.692;9.144;2022-07-05T08:12:41;1.75;;;1.50;;
2652;SDS011;1336;48.692;9.144;2022-07-05T08:13:32;3.00;;;1.57;;
2652;SDS011;1336;48.692;9.144;2022-07-05T08:14:24;2.03;;;1.30;;
2652;SDS011;1336;48.692;9.144;2022-07-05T08:15:15;1.77;;;1.27;;
2652;SDS011;1336;48.692;9.144;2022-07-05T08:16:07;2.70;;;1.73;;
2652;SDS011;1336;48.692;9.144;2022-07-05T08:16:58;2.50;;;1.98;;
2652;SDS011;1336;48.692;9.144;2022-07-05T08:17:50;9.45;;;1.45;;
2652;SDS011;1336;48.692;9.144;2022-07-05T08:18:56;4.07;;;1.73;;
2652;SDS011;1336;48.692;9.144;2022-07-05T08:20:05;3.33;;;2.40;;
2652;SDS011;1336;48.692;9.144;2022-07-05T08:21:15;4.55;;;2.67;;
2652;SDS011;1336;48.692;9.144;2022-07-05T08:22:22;4.63;;;1.90;;
2652;SDS011;1336;48.692;9.144;2022-07-05T08:23:14;2.17;;;1.50;;
2652;SDS011;1336;48.692;9.144;2022-07-05T08:24:05;1.53;;;1.30;;
2652;SDS011;1336;48.692;9.144;2022-07-05T08:24:58;2.30;;;1.75;;
2652;SDS011;1336;48.692;9.144;2022-07-05T08:25:49;4.10;;;1.50;;
2652;SDS011;1336;48.692;9.144;2022-07-05T08:26:41;1.92;;;1.50;;
2652;SDS011;1336;48.692;9.144;2022-07-05T08:27:32;1.30;;;1.20;;
2652;SDS011;1336;48.692;9.144;2022-07-05T08:28:23;1.37;;;1.27;;
2652;SDS011;1336;48.692;9.144;2022-07-05T08:29:16;1.70;;;1.60;;
2652;SDS011;1336;48.692;9.144;2022-07-05T08:30:08;2.73;;;1.40;;
2652;SDS011;1336;48.692;9.144;2022-07-05T08:31:00;2.37;;;1.80;;
2652;SDS011;1336;48.692;9.144;2022-07-05T08:31:51;2.33;;;1.60;;
2652;SDS011;1336;48.692;9.144;2022-07-05T08:32:42;2.73;;;1.80;;
2652;SDS011;1336;48.692;9.144;2022-07-05T08:33:34;3.00;;;1.70;;
2652;SDS011;1336;48.692;9.144;2022-07-05T08:34:25;1.73;;;1.10;;
2652;SDS011;1336;48.692;9.144;2022-07-05T08:35:17;3.83;;;1.60;;
2652;SDS011;1336;48.692;9.144;2022-07-05T08:36:08;1.40;;;0.97;;
2652;SDS011;1336;48.692;9.144;2022-07-05T08:36:59;4.43;;;1.60;;
2652;SDS011;1336;48.692;9.144;2022-07-05T08:37:52;1.80;;;1.20;;
2652;SDS011;1336;48.692;9.144;2022-07-05T08:38:44;1.87;;;1.20;;
2652;SDS011;1336;48.692;9.144;2022-07-05T08:39:35;1.23;;;1.13;;
2652;SDS011;1336;48.692;9.144;2022-07-05T08:40:27;1.50;;;1.17;;
2652;SDS011;1336;48.692;9.144;2022-07-05T08:41:22;2.13;;;1.10;;
2652;SDS011;1336;48.692;9.144;2022-07-05T08:42:14;2.07;;;1.43;;
2652;SDS011;1336;48.692;9.144;2022-07-05T08:43:06;1.53;;;1.40;;
2652;SDS011;1336;48.692;9.144;2022-07-05T08:43:59;2.77;;;1.23;;
2652;SDS011;1336;48.692;9.144;2022-07-05T08:44:52;2.50;;;1.40;;
2652;SDS011;1336;48.692;9.144;2022-07-05T08:45:46;2.57;;;1.40;;
2652;SDS011;1336;48.692;9.144;2022-07-05T08:46:40;2.35;;;1.20;;
2652;SDS011;1336;48.692;9.144;2022-07-05T08:47:32;2.57;;;1.50;;
2652;SDS011;1336;48.692;9.144;2022-07-05T08:48:25;1.40;;;1.30;;
2652;SDS011;1336;48.692;9.144;2022-07-05T08:49:20;4.23;;;1.37;;
2652;SDS011;1336;48.692;9.144;2022-07-05T08:50:13;3.77;;;1.47;;
2652;SDS011;1336;48.692;9.144;2022-07-05T08:51:05;1.67;;;1.23;;
2652;SDS011;1336;48.692;9.144;2022-07-05T08:51:58;1.90;;;1.33;;
2652;SDS011;1336;48.692;9.144;2022-07-05T08:52:55;2.70;;;1.43;;
2652;SDS011;1336;48.692;9.144;2022-07-05T08:53:49;2.78;;;1.27;;
2652;SDS011;1336;48.692;9.144;2022-07-05T08:54:41;2.20;;;1.20;;
2652;SDS011;1336;48.692;9.144;2022-07-05T08:55:33;1.60;;;1.50;;
2652;SDS011;1336;48.692;9.144;2022-07-05T08:56:24;4.80;;;1.90;;
2652;SDS011;1336;48.692;9.144;2022-07-05T08:57:16;2.10;;;1.57;;
2652;SDS011;1336;48.692;9.144;2022-07-05T08:58:06;5.93;;;1.30;;
2652;SDS011;1336;48.692;9.144;2022-07-05T08:58:59;2.00;;;1.52;;
2652;SDS011;1336;48.692;9.144;2022-07-05T08:59:50;1.30;;;1.20;;
2652;SDS011;1336;48.692;9.144;2022-07-05T09:00:42;1.80;;;1.23;;
2652;SDS011;1336;48.692;9.144;2022-07-05T09:01:33;5.07;;;1.27;;
2652;SDS011;1336;48.692;9.144;2022-07-05T09:02:26;2.30;;;1.50;;
2652;SDS011;1336;48.692;9.144;2022-07-05T09:03:17;1.60;;;1.50;;
2652;SDS011;1336;48.692;9.144;2022-07-05T09:04:12;2.93;;;1.13;;
2652;SDS011;1336;48.692;9.144;2022-07-05T09:05:06;2.00;;;1.80;;
2652;SDS011;1336;48.692;9.144;2022-07-05T09:06:03;4.38;;;1.60;;
2652;SDS011;1336;48.692;9.144;2022-07-05T09:06:56;3.37;;;1.13;;
2652;SDS011;1336;48.692;9.144;2022-07-05T09:07:57;3.78;;;1.35;;
2652;SDS011;1336;48.692;9.144;2022-07-05T09:08:50;1.20;;;1.10;;
2652;SDS011;1336;48.692;9.144;2022-07-05T09:09:44;2.33;;;1.60;;
2652;SDS011;1336;48.692;9.144;2022-07-05T09:10:38;1.58;;;1.40;;
2652;SDS011;1336;48.692;9.144;2022-07-05T09:11:34;2.65;;;1.30;;
2652;SDS011;1336;48.692;9.144;2022-07-05T09:12:27;1.58;;;1.25;;
2652;SDS011;1336;48.692;9.144;2022-07-05T09:13:19;2.05;;;1.20;;
2652;SDS011;1336;48.692;9.144;2022-07-05T09:14:18;2.70;;;1.30;;
2652;SDS011;1336;48.692;9.144;2022-07-05T09:15:11;3.40;;;1.52;;
2652;SDS011;1336;48.692;9.144;2022-07-05T09:16:01;1.80;;;1.07;;
2652;SDS011;1336;48.692;9.144;2022-07-05T09:16:54;3.75;;;1.58;;
2652;SDS011;1336;48.692;9.144;2022-07-05T09:17:46;1.30;;;1.10;;
2652;SDS011;1336;48.692;9.144;2022-07-05T09:18:39;1.25;;;1.15;;
2652;SDS011;1336;48.692;9.144;2022-07-05T09:19:34;2.20;;;1.40;;
2652;SDS011;1336;48.692;9.144;2022-07-05T09:20:27;1.77;;;1.27;;
2652;SDS011;1336;48.692;9.144;2022-07-05T09:21:18;2.93;;;1.50;;
2652;SDS011;1336;48.692;9.144;2022-07-05T09:22:11;1.10;;;1.00;;
2652;SDS011;1336;48.692;9.144;2022-07-05T09:23:03;2.40;;;1.20;;
2652;SDS011;1336;48.692;9.144;2022-07-05T09:23:56;1.80;;;1.50;;
2652;SDS011;1336;48.692;9.144;2022-07-05T09:24:47;2.40;;;1.70;;
2652;SDS011;1336;48.692;9.144;2022-07-05T09:25:39;2.50;;;1.37;;
2652;SDS011;1336;48.692;9.144;2022-07-05T09:26:33;2.65;;;1.20;;
2652;SDS011;1336;48.692;9.144;2022-07-05T09:27:28;1.43;;;1.33;;
2652;SDS011;1336;48.692;9.144;2022-07-05T09:28:22;1.60;;;1.07;;
2652;SDS011;1336;48.692;9.144;2022-07-05T09:29:15;2.10;;;1.25;;
2652;SDS011;1336;48.692;9.144;2022-07-05T09:30:09;2.58;;;1.40;;
2652;SDS011;1336;48.692;9.144;2022-07-05T09:31:00;2.33;;;1.50;;
2652;SDS011;1336;48.692;9.144;2022-07-05T09:31:52;3.83;;;1.27;;
2652;SDS011;1336;48.692;9.144;2022-07-05T09:32:43;2.30;;;1.20;;
2652;SDS011;1336;48.692;9.144;2022-07-05T09:33:35;1.92;;;1.60;;
2652;SDS011;1336;48.692;9.144;2022-07-05T09:34:39;1.70;;;1.10;;
2652;SDS011;1336;48.692;9.144;2022-07-05T09:35:31;1.77;;;1.40;;
2652;SDS011;1336;48.692;9.144;2022-07-05T09:36:23;1.92;;;1.50;;
2652;SDS011;1336;48.692;9.144;2022-07-05T09:37:15;1.40;;;1.27;;
2652;SDS011;1336;48.692;9.144;2022-07-05T09:38:15;3.83;;;1.60;;
2652;SDS011;1336;48.692;9.144;2022-07-05T09:39:08;1.43;;;1.10;;
2652;SDS011;1336;48.692;9.144;2022-07-05T09:39:59;2.57;;;1.20;;
2652;SDS011;1336;48.692;9.144;2022-07-05T09:40:51;2.67;;;1.10;;
2652;SDS011;1336;48.692;9.144;2022-07-05T09:41:43;1.53;;;1.20;;
2652;SDS011;1336;48.692;9.144;2022-07-05T09:42:35;2.47;;;1.30;;
2652;SDS011;1336;48.692;9.144;2022-07-05T09:43:27;1.47;;;1.30;;
2652;SDS011;1336;48.692;9.144;2022-07-05T09:44:25;3.50;;;1.30;;
2652;SDS011;1336;48.692;9.144;2022-07-05T09:45:23;1.90;;;1.40;;
2652;SDS011;1336;48.692;9.144;2022-07-05T09:46:15;2.00;;;1.00;;
2652;SDS011;1336;48.692;9.144;2022-07-05T09:47:07;3.75;;;1.35;;
2652;SDS011;1336;48.692;9.144;2022-07-05T09:48:00;1.40;;;1.30;;
2652;SDS011;1336;48.692;9.144;2022-07-05T09:48:52;3.92;;;1.27;;
2652;SDS011;1336;48.692;9.144;2022-07-05T09:49:43;4.33;;;1.23;;
2652;SDS011;1336;48.692;9.144;2022-07-05T09:50:36;1.45;;;1.27;;
2652;SDS011;1336;48.692;9.144;2022-07-05T09:51:27;2.10;;;1.10;;
2652;SDS011;1336;48.692;9.144;2022-07-05T09:52:25;2.78;;;1.30;;
2652;SDS011;1336;48.692;9.144;2022-07-05T09:53:19;1.60;;;1.10;;
2652;SDS011;1336;48.692;9.144;2022-07-05T09:54:11;1.97;;;1.23;;
2652;SDS011;1336;48.692;9.144;2022-07-05T09:55:02;2.60;;;0.90;;
2652;SDS011;1336;48.692;9.144;2022-07-05T09:56:01;2.13;;;0.98;;
2652;SDS011;1336;48.692;9.144;2022-07-05T09:56:52;4.23;;;1.57;;
2652;SDS011;1336;48.692;9.144;2022-07-05T09:57:44;1.77;;;1.00;;
2652;SDS011;1336;48.692;9.144;2022-07-05T09:58:37;1.87;;;1.50;;
2652;SDS011;1336;48.692;9.144;2022-07-05T09:59:28;2.63;;;1.30;;
2652;SDS011;1336;48.692;9.144;2022-07-05T10:00:20;1.87;;;1.30;;
2652;SDS011;1336;48.692;9.144;2022-07-05T10:01:22;4.97;;;1.20;;
2652;SDS011;1336;48.692;9.144;2022-07-05T10:02:13;1.40;;;1.30;;
2652;SDS011;1336;48.692;9.144;2022-07-05T10:03:15;2.47;;;1.30;;
2652;SDS011;1336;48.692;9.144;2022-07-05T10:04:08;2.40;;;1.27;;
2652;SDS011;1336;48.692;9.144;2022-07-05T10:05:07;1.30;;;1.20;;
2652;SDS011;1336;48.692;9.144;2022-07-05T10:06:09;3.25;;;1.13;;
2652;SDS011;1336;48.692;9.144;2022-07-05T10:07:01;1.93;;;1.50;;
2652;SDS011;1336;48.692;9.144;2022-07-05T10:07:54;2.45;;;1.00;;
2652;SDS011;1336;48.692;9.144;2022-07-05T10:08:46;2.50;;;1.60;;
2652;SDS011;1336;48.692;9.144;2022-07-05T10:09:40;1.25;;;1.15;;
2652;SDS011;1336;48.692;9.144;2022-07-05T10:10:31;1.50;;;1.10;;
2652;SDS011;1336;48.692;9.144;2022-07-05T10:11:24;2.27;;;1.27;;
2652;SDS011;1336;48.692;9.144;2022-07-05T10:12:15;2.17;;;1.02;;
2652;SDS011;1336;48.692;9.144;2022-07-05T10:13:07;1.27;;;0.97;;
2652;SDS011;1336;48.692;9.144;2022-07-05T10:13:58;2.70;;;1.03;;
2652;SDS011;1336;48.692;9.144;2022-07-05T10:14:53;2.50;;;1.30;;
2652;SDS011;1336;48.692;9.144;2022-07-05T10:15:47;1.50;;;1.10;;
2652;SDS011;1336;48.692;9.144;2022-07-05T10:16:39;2.03;;;1.20;;
2652;SDS011;1336;48.692;9.144;2022-07-05T10:17:33;1.60;;;1.30;;
2652;SDS011;1336;48.692;9.144;2022-07-05T10:18:26;1.20;;;0.93;;
2652;SDS011;1336;48.692;9.144;2022-07-05T10:19:21;2.15;;;1.40;;
2652;SDS011;1336;48.692;9.144;2022-07-05T10:20:17;2.27;;;1.20;;
2652;SDS011;1336;48.692;9.144;2022-07-05T10:21:11;1.30;;;1.10;;
2652;SDS011;1336;48.692;9.144;2022-07-05T10:22:04;3.23;;;1.43;;
2652;SDS011;1336;48.692;9.144;2022-07-05T10:22:57;2.23;;;1.10;;
2652;SDS011;1336;48.692;9.144;2022-07-05T10:23:50;2.60;;;1.40;;
2652;SDS011;1336;48.692;9.144;2022-07-05T10:24:43;1.73;;;1.30;;
2652;SDS011;1336;48.692;9.144;2022-07-05T10:25:35;2.43;;;1.30;;
2652;SDS011;1336;48.692;9.144;2022-07-05T10:26:27;2.57;;;1.23;;